Airport View

Enter AWOS ICAO identifier for current METAR.

ex. KFNL

KDHN 140653Z AUTO 30006KT 10SM OVC002 10/09 A2977 RMK AO2 RAE18 SLP080 P0000 T01000089

14 Dec 2019 07:25

Phone: 334-983-5999

Other Area AWOS: KHEY - KOZR - KLOR - KEDN

TAF KDHN 140534Z 1406/1506 32007KT 5SM -RA BR OVC004 FM140700 31008KT 3SM BR OVC003 FM141300 29005KT P6SM BKN015 FM141600 28008KT P6SM FEW030